createdAt,value
2022-12-19T00:00:33.448Z,1013.28
2022-12-19T00:01:33.485Z,1013.29
2022-12-19T00:02:33.519Z,1013.32
2022-12-19T00:03:33.581Z,1013.33
2022-12-19T00:04:33.410Z,1013.32
2022-12-19T00:05:33.366Z,1013.24
2022-12-19T00:06:33.407Z,1013.22
2022-12-19T00:07:33.375Z,1013.15
2022-12-19T00:08:33.343Z,1013.11
2022-12-19T00:09:33.351Z,1013.11
2022-12-19T00:10:33.348Z,1013.12
2022-12-19T00:11:33.302Z,1013.11
2022-12-19T00:12:33.566Z,1013.09
2022-12-19T00:13:38.108Z,1013.11
2022-12-19T00:14:34.262Z,1013.05
2022-12-19T00:15:33.259Z,1013.06
2022-12-19T00:16:33.304Z,1013.05
2022-12-19T00:17:33.239Z,1012.95
2022-12-19T00:18:33.219Z,1012.91
2022-12-19T00:19:33.209Z,1012.84
2022-12-19T00:20:33.179Z,1012.85
2022-12-19T00:21:34.936Z,1012.83
2022-12-19T00:22:33.170Z,1012.79
2022-12-19T00:23:33.160Z,1012.74
2022-12-19T00:24:33.148Z,1012.73
2022-12-19T00:25:33.136Z,1012.71
2022-12-19T00:26:33.129Z,1012.77
2022-12-19T00:27:33.105Z,1012.70
2022-12-19T00:28:33.126Z,1012.72
2022-12-19T00:29:33.091Z,1012.75
2022-12-19T00:30:33.336Z,1012.75
2022-12-19T00:31:33.092Z,1012.74
2022-12-19T00:32:33.109Z,1012.69
2022-12-19T00:33:33.057Z,1012.72
2022-12-19T00:34:33.022Z,1012.75
2022-12-19T00:35:32.986Z,1012.76
2022-12-19T00:36:32.978Z,1012.74
2022-12-19T00:37:33.226Z,1012.69
2022-12-19T00:38:32.977Z,1012.75
2022-12-19T00:39:32.987Z,1012.79
2022-12-19T00:40:32.970Z,1012.79
2022-12-19T00:41:32.921Z,1012.83
2022-12-19T00:42:32.903Z,1012.81
2022-12-19T00:43:32.933Z,1012.82
2022-12-19T00:44:32.906Z,1012.81
2022-12-19T00:45:32.943Z,1012.88
2022-12-19T00:46:32.886Z,1012.90
2022-12-19T00:47:32.867Z,1012.89
2022-12-19T00:48:32.826Z,1012.89
2022-12-19T00:49:32.827Z,1012.87
2022-12-19T00:50:32.819Z,1012.84
2022-12-19T00:51:33.079Z,1012.85
2022-12-19T00:52:32.768Z,1012.88
2022-12-19T00:53:32.790Z,1012.84
2022-12-19T00:54:32.837Z,1012.88
2022-12-19T00:55:32.769Z,1012.88
2022-12-19T00:56:34.036Z,1012.82
2022-12-19T00:57:33.719Z,1012.80
2022-12-19T00:58:35.430Z,1012.73
2022-12-19T00:59:32.995Z,1012.73
2022-12-19T01:00:32.761Z,1012.70
2022-12-19T01:01:32.817Z,1012.68
2022-12-19T01:02:32.801Z,1012.64
2022-12-19T01:03:32.640Z,1012.59
2022-12-19T01:04:36.883Z,1012.57
2022-12-19T01:05:33.890Z,1012.52
2022-12-19T01:06:32.636Z,1012.61
2022-12-19T01:07:32.595Z,1012.66
2022-12-19T01:08:32.566Z,1012.66
2022-12-19T01:09:32.604Z,1012.57
2022-12-19T01:10:32.579Z,1012.51
2022-12-19T01:11:32.547Z,1012.51
2022-12-19T01:12:32.530Z,1012.57
2022-12-19T01:13:32.516Z,1012.51
2022-12-19T01:14:32.506Z,1012.43
2022-12-19T01:15:32.486Z,1012.47
2022-12-19T01:16:32.537Z,1012.44
2022-12-19T01:17:32.463Z,1012.44
2022-12-19T01:18:32.443Z,1012.39
2022-12-19T01:19:32.446Z,1012.48
2022-12-19T01:20:32.425Z,1012.45
2022-12-19T01:21:32.427Z,1012.45
2022-12-19T01:22:32.408Z,1012.48
2022-12-19T01:23:32.394Z,1012.52
2022-12-19T01:24:32.381Z,1012.53
2022-12-19T01:25:32.368Z,1012.62
2022-12-19T01:26:32.354Z,1012.65
2022-12-19T01:27:32.342Z,1012.64
2022-12-19T01:28:32.322Z,1012.65
2022-12-19T01:29:32.322Z,1012.68
2022-12-19T01:30:32.294Z,1012.76
2022-12-19T01:31:32.351Z,1012.77
2022-12-19T01:32:32.296Z,1012.77
2022-12-19T01:33:32.260Z,1012.77
2022-12-19T01:34:32.261Z,1012.81
2022-12-19T01:35:32.239Z,1012.81
2022-12-19T01:36:32.223Z,1012.74
2022-12-19T01:37:32.209Z,1012.75
2022-12-19T01:38:32.199Z,1012.65
2022-12-19T01:39:32.203Z,1012.67
2022-12-19T01:40:32.179Z,1012.69
2022-12-19T01:41:32.158Z,1012.65
2022-12-19T01:42:32.157Z,1012.63
2022-12-19T01:43:32.166Z,1012.64
2022-12-19T01:44:32.126Z,1012.63
2022-12-19T01:45:34.678Z,1012.65
2022-12-19T01:46:32.158Z,1012.65
2022-12-19T01:47:32.106Z,1012.68
2022-12-19T01:48:32.071Z,1012.63
2022-12-19T01:49:32.070Z,1012.61
2022-12-19T01:50:32.042Z,1012.56
2022-12-19T01:51:32.024Z,1012.56
2022-12-19T01:52:32.024Z,1012.53
2022-12-19T01:53:32.005Z,1012.59
2022-12-19T01:54:32.013Z,1012.57
2022-12-19T01:55:31.982Z,1012.54
2022-12-19T01:56:31.935Z,1012.54
2022-12-19T01:57:31.923Z,1012.54
2022-12-19T01:58:31.913Z,1012.51
2022-12-19T01:59:31.936Z,1012.52
2022-12-19T02:00:31.904Z,1012.54
2022-12-19T02:01:31.979Z,1012.48
2022-12-19T02:02:31.985Z,1012.49
2022-12-19T02:03:31.868Z,1012.49
2022-12-19T02:04:32.664Z,1012.53
2022-12-19T02:05:31.850Z,1012.55
2022-12-19T02:06:31.825Z,1012.56
2022-12-19T02:07:31.812Z,1012.59
2022-12-19T02:08:31.786Z,1012.58
2022-12-19T02:09:31.781Z,1012.59
2022-12-19T02:10:31.764Z,1012.55
2022-12-19T02:11:31.827Z,1012.58
2022-12-19T02:12:31.762Z,1012.54
2022-12-19T02:13:31.730Z,1012.54
2022-12-19T02:14:31.739Z,1012.51
2022-12-19T02:15:31.731Z,1012.51
2022-12-19T02:16:31.737Z,1012.56
2022-12-19T02:17:31.676Z,1012.59
2022-12-19T02:18:31.670Z,1012.54
2022-12-19T02:19:31.673Z,1012.52
2022-12-19T02:20:31.636Z,1012.53
2022-12-19T02:21:31.641Z,1012.52
2022-12-19T02:22:31.601Z,1012.48
2022-12-19T02:23:31.610Z,1012.49
2022-12-19T02:24:32.217Z,1012.46
2022-12-19T02:25:31.627Z,1012.42
2022-12-19T02:26:31.565Z,1012.44
2022-12-19T02:27:34.820Z,1012.35
2022-12-19T02:28:32.551Z,1012.34
2022-12-19T02:29:31.571Z,1012.25
2022-12-19T02:30:31.524Z,1012.20
2022-12-19T02:31:31.839Z,1012.16
2022-12-19T02:32:31.511Z,1012.10
2022-12-19T02:33:31.503Z,1012.00
2022-12-19T02:34:31.497Z,1011.99
2022-12-19T02:35:31.481Z,1011.89
2022-12-19T02:36:32.452Z,1011.82
2022-12-19T02:37:32.455Z,1011.83
2022-12-19T02:38:31.440Z,1011.75
2022-12-19T02:39:31.466Z,1011.71
2022-12-19T02:40:31.403Z,1011.70
2022-12-19T02:41:31.655Z,1011.68
2022-12-19T02:42:31.983Z,1011.74
2022-12-19T02:43:31.374Z,1011.68
2022-12-19T02:44:31.371Z,1011.72
2022-12-19T02:45:31.350Z,1011.70
2022-12-19T02:46:31.376Z,1011.75
2022-12-19T02:47:31.353Z,1011.77
2022-12-19T02:48:31.324Z,1011.73
2022-12-19T02:49:31.452Z,1011.83
2022-12-19T02:50:31.281Z,1011.82
2022-12-19T02:51:31.280Z,1011.83
2022-12-19T02:52:31.264Z,1011.85
2022-12-19T02:53:31.247Z,1011.81
2022-12-19T02:54:31.267Z,1011.91
2022-12-19T02:55:31.249Z,1011.91
2022-12-19T02:56:31.212Z,1011.92
2022-12-19T02:57:31.189Z,1011.89
2022-12-19T02:58:31.182Z,1011.91
2022-12-19T02:59:31.193Z,1011.92
2022-12-19T03:00:31.186Z,1011.91
2022-12-19T03:01:31.246Z,1011.89
2022-12-19T03:02:31.220Z,1011.91
2022-12-19T03:03:31.179Z,1011.84
2022-12-19T03:04:31.130Z,1011.86
2022-12-19T03:05:31.107Z,1011.82
2022-12-19T03:06:31.084Z,1011.80
2022-12-19T03:07:31.177Z,1011.83
2022-12-19T03:08:31.346Z,1011.87
2022-12-19T03:09:31.060Z,1011.93
2022-12-19T03:10:31.043Z,1011.88
2022-12-19T03:11:31.026Z,1011.91
2022-12-19T03:12:31.009Z,1011.79
2022-12-19T03:13:31.031Z,1011.73
2022-12-19T03:14:31.002Z,1011.71
2022-12-19T03:15:30.971Z,1011.64
2022-12-19T03:16:31.022Z,1011.67
2022-12-19T03:17:30.953Z,1011.68
2022-12-19T03:18:30.944Z,1011.70
2022-12-19T03:19:30.953Z,1011.63
2022-12-19T03:20:30.943Z,1011.74
2022-12-19T03:21:30.918Z,1011.76
2022-12-19T03:22:30.889Z,1011.84
2022-12-19T03:23:30.876Z,1011.78
2022-12-19T03:24:30.878Z,1011.83
2022-12-19T03:25:30.860Z,1011.83
2022-12-19T03:26:30.832Z,1011.76
2022-12-19T03:27:30.833Z,1011.80
2022-12-19T03:28:30.804Z,1011.72
2022-12-19T03:29:30.801Z,1011.61
2022-12-19T03:30:30.823Z,1011.70
2022-12-19T03:31:30.771Z,1011.70
2022-12-19T03:32:30.770Z,1011.68
2022-12-19T03:33:30.786Z,1011.67
2022-12-19T03:34:30.807Z,1011.60
2022-12-19T03:35:30.738Z,1011.67
2022-12-19T03:36:30.727Z,1011.64
2022-12-19T03:37:30.704Z,1011.67
2022-12-19T03:38:30.702Z,1011.71
2022-12-19T03:39:30.697Z,1011.67
2022-12-19T03:40:30.652Z,1011.74
2022-12-19T03:41:30.654Z,1011.81
2022-12-19T03:42:30.623Z,1011.74
2022-12-19T03:43:30.616Z,1011.77
2022-12-19T03:44:30.614Z,1011.75
2022-12-19T03:45:30.629Z,1011.74
2022-12-19T03:46:30.863Z,1011.71
2022-12-19T03:47:30.590Z,1011.68
2022-12-19T03:48:30.563Z,1011.73
2022-12-19T03:49:30.656Z,1011.68
2022-12-19T03:50:30.527Z,1011.61
2022-12-19T03:51:30.543Z,1011.61
2022-12-19T03:52:30.495Z,1011.62
2022-12-19T03:53:30.506Z,1011.61
2022-12-19T03:54:30.508Z,1011.55
2022-12-19T03:55:30.479Z,1011.64
2022-12-19T03:56:30.514Z,1011.59
2022-12-19T03:57:30.464Z,1011.58
2022-12-19T03:58:30.439Z,1011.50
2022-12-19T03:59:30.451Z,1011.59
2022-12-19T04:00:30.406Z,1011.53
2022-12-19T04:01:30.457Z,1011.46
2022-12-19T04:02:30.435Z,1011.50
2022-12-19T04:03:30.689Z,1011.48
2022-12-19T04:04:30.389Z,1011.42
2022-12-19T04:05:30.350Z,1011.38
2022-12-19T04:06:30.366Z,1011.44
2022-12-19T04:07:30.310Z,1011.39
2022-12-19T04:08:30.327Z,1011.38
2022-12-19T04:09:30.314Z,1011.37
2022-12-19T04:10:30.287Z,1011.39
2022-12-19T04:11:30.261Z,1011.47
2022-12-19T04:12:30.258Z,1011.43
2022-12-19T04:13:30.250Z,1011.39
2022-12-19T04:14:30.243Z,1011.39
2022-12-19T04:15:30.272Z,1011.38
2022-12-19T04:16:30.252Z,1011.45
2022-12-19T04:17:30.190Z,1011.43
2022-12-19T04:18:30.178Z,1011.38
2022-12-19T04:19:30.177Z,1011.40
2022-12-19T04:20:30.155Z,1011.34
2022-12-19T04:21:30.155Z,1011.44
2022-12-19T04:22:30.129Z,1011.35
2022-12-19T04:23:30.129Z,1011.33
2022-12-19T04:24:30.117Z,1011.30
2022-12-19T04:25:30.095Z,1011.34
2022-12-19T04:26:30.068Z,1011.30
2022-12-19T04:27:30.063Z,1011.33
2022-12-19T04:28:30.124Z,1011.34
2022-12-19T04:29:30.056Z,1011.36
2022-12-19T04:30:30.018Z,1011.37
2022-12-19T04:31:31.180Z,1011.48
2022-12-19T04:32:30.005Z,1011.38
2022-12-19T04:33:30.006Z,1011.45
2022-12-19T04:34:30.006Z,1011.42
2022-12-19T04:35:29.965Z,1011.36
2022-12-19T04:36:29.950Z,1011.41
2022-12-19T04:37:29.943Z,1011.35
2022-12-19T04:38:29.915Z,1011.40
2022-12-19T04:39:29.940Z,1011.39
2022-12-19T04:40:29.903Z,1011.45
2022-12-19T04:41:29.935Z,1011.28
2022-12-19T04:42:29.899Z,1011.27
2022-12-19T04:43:29.858Z,1011.22
2022-12-19T04:44:29.879Z,1011.14
2022-12-19T04:45:29.824Z,1011.20
2022-12-19T04:46:29.852Z,1011.22
2022-12-19T04:47:29.853Z,1011.25
2022-12-19T04:48:29.797Z,1011.29
2022-12-19T04:49:29.781Z,1011.31
2022-12-19T04:50:29.762Z,1011.31
2022-12-19T04:51:29.752Z,1011.32
2022-12-19T04:52:29.742Z,1011.33
2022-12-19T04:53:29.736Z,1011.34
2022-12-19T04:54:29.739Z,1011.33
2022-12-19T04:55:29.713Z,1011.38
2022-12-19T04:56:29.691Z,1011.35
2022-12-19T04:57:29.676Z,1011.29
2022-12-19T04:58:29.702Z,1011.31
2022-12-19T04:59:29.660Z,1011.34
2022-12-19T05:00:29.647Z,1011.36
2022-12-19T05:01:29.756Z,1011.32
2022-12-19T05:02:29.974Z,1011.30
2022-12-19T05:03:29.654Z,1011.23
2022-12-19T05:04:29.609Z,1011.26
2022-12-19T05:05:29.569Z,1011.30
2022-12-19T05:06:29.597Z,1011.30
2022-12-19T05:07:29.567Z,1011.29
2022-12-19T05:08:29.554Z,1011.25
2022-12-19T05:09:29.566Z,1011.25
2022-12-19T05:10:29.566Z,1011.28
2022-12-19T05:11:29.511Z,1011.33
2022-12-19T05:12:29.491Z,1011.37
2022-12-19T05:13:29.735Z,1011.37
2022-12-19T05:14:29.474Z,1011.37
2022-12-19T05:15:29.464Z,1011.42
2022-12-19T05:16:29.494Z,1011.40
2022-12-19T05:17:29.447Z,1011.43
2022-12-19T05:18:29.430Z,1011.36
2022-12-19T05:19:29.400Z,1011.28
2022-12-19T05:20:29.380Z,1011.26
2022-12-19T05:21:29.374Z,1011.27
2022-12-19T05:22:29.372Z,1011.21
2022-12-19T05:23:29.368Z,1011.23
2022-12-19T05:24:29.349Z,1011.21
2022-12-19T05:25:29.317Z,1011.25
2022-12-19T05:26:29.300Z,1011.27
2022-12-19T05:27:29.283Z,1011.17
2022-12-19T05:28:29.284Z,1011.22
2022-12-19T05:29:29.267Z,1011.20
2022-12-19T05:30:29.288Z,1011.25
2022-12-19T05:31:29.302Z,1011.25
2022-12-19T05:32:29.230Z,1011.24
2022-12-19T05:33:29.208Z,1011.19
2022-12-19T05:34:29.220Z,1011.21
2022-12-19T05:35:29.174Z,1011.15
2022-12-19T05:36:32.460Z,1011.16
2022-12-19T05:37:29.166Z,1011.16
2022-12-19T05:38:29.136Z,1011.19
2022-12-19T05:39:29.170Z,1011.25
2022-12-19T05:40:29.143Z,1011.25
2022-12-19T05:41:29.113Z,1011.31
2022-12-19T05:42:29.112Z,1011.26
2022-12-19T05:43:29.338Z,1011.30
2022-12-19T05:44:29.125Z,1011.34
2022-12-19T05:45:29.058Z,1011.43
2022-12-19T05:46:29.125Z,1011.36
2022-12-19T05:47:29.078Z,1011.34
2022-12-19T05:48:29.029Z,1011.31
2022-12-19T05:49:29.024Z,1011.30
2022-12-19T05:50:29.012Z,1011.26
2022-12-19T05:51:28.977Z,1011.28
2022-12-19T05:52:28.977Z,1011.30
2022-12-19T05:53:28.944Z,1011.28
2022-12-19T05:54:28.976Z,1011.27
2022-12-19T05:55:28.942Z,1011.26
2022-12-19T05:56:28.911Z,1011.27
2022-12-19T05:57:28.891Z,1011.25
2022-12-19T05:58:28.894Z,1011.22
2022-12-19T05:59:28.887Z,1011.30
2022-12-19T06:00:28.859Z,1011.29
2022-12-19T06:01:28.877Z,1011.26
2022-12-19T06:02:28.950Z,1011.25
2022-12-19T06:03:28.842Z,1011.26
2022-12-19T06:04:28.820Z,1011.20
2022-12-19T06:05:28.797Z,1011.23
2022-12-19T06:06:28.804Z,1011.25
2022-12-19T06:07:28.769Z,1011.18
2022-12-19T06:08:28.755Z,1011.15
2022-12-19T06:09:28.761Z,1011.15
2022-12-19T06:10:28.729Z,1011.18
2022-12-19T06:11:28.734Z,1011.14
2022-12-19T06:12:28.704Z,1011.09
2022-12-19T06:13:28.959Z,1011.15
2022-12-19T06:14:28.695Z,1011.10
2022-12-19T06:15:28.685Z,1011.10
2022-12-19T06:16:28.687Z,1011.13
2022-12-19T06:17:28.644Z,1011.08
2022-12-19T06:18:28.900Z,1011.18
2022-12-19T06:19:28.653Z,1011.12
2022-12-19T06:20:28.625Z,1011.15
2022-12-19T06:21:28.606Z,1011.15
2022-12-19T06:22:28.573Z,1011.10
2022-12-19T06:23:28.565Z,1011.08
2022-12-19T06:24:28.609Z,1011.12
2022-12-19T06:25:28.803Z,1011.16
2022-12-19T06:26:28.565Z,1011.20
2022-12-19T06:27:28.533Z,1011.18
2022-12-19T06:28:28.499Z,1011.15
2022-12-19T06:29:28.512Z,1011.19
2022-12-19T06:30:28.497Z,1011.22
2022-12-19T06:31:28.500Z,1011.19
2022-12-19T06:32:29.786Z,1011.22
2022-12-19T06:33:28.444Z,1011.17
2022-12-19T06:35:02.392Z,1011.17
2022-12-19T06:35:29.409Z,1011.14
2022-12-19T06:36:28.418Z,1011.11
2022-12-19T06:37:28.390Z,1011.02
2022-12-19T06:38:28.386Z,1011.09
2022-12-19T06:39:28.394Z,1011.03
2022-12-19T06:40:28.345Z,1011.01
2022-12-19T06:41:28.334Z,1010.98
2022-12-19T06:42:28.324Z,1011.01
2022-12-19T06:43:28.319Z,1010.97
2022-12-19T06:44:28.338Z,1010.89
2022-12-19T06:45:28.329Z,1010.89
2022-12-19T06:46:28.276Z,1010.96
2022-12-19T06:47:28.511Z,1010.88
2022-12-19T06:48:28.247Z,1010.97
2022-12-19T06:49:28.277Z,1010.99
2022-12-19T06:50:28.239Z,1011.05
2022-12-19T06:51:28.231Z,1010.99
2022-12-19T06:52:28.201Z,1011.05
2022-12-19T06:53:28.178Z,1011.01
2022-12-19T06:54:28.191Z,1010.98
2022-12-19T06:55:28.155Z,1011.03
2022-12-19T06:56:28.147Z,1010.93
2022-12-19T06:57:28.121Z,1010.96
2022-12-19T06:58:28.392Z,1010.94
2022-12-19T06:59:28.098Z,1010.89
2022-12-19T07:00:28.349Z,1010.91
2022-12-19T07:01:28.416Z,1010.86
2022-12-19T07:02:28.455Z,1010.81
2022-12-19T07:03:28.048Z,1010.86
2022-12-19T07:04:28.050Z,1010.88
2022-12-19T07:05:28.027Z,1010.90
2022-12-19T07:06:28.016Z,1010.82
2022-12-19T07:07:28.003Z,1010.80
2022-12-19T07:08:27.989Z,1010.83
2022-12-19T07:09:27.976Z,1010.78
2022-12-19T07:10:28.013Z,1010.82
2022-12-19T07:11:27.952Z,1010.78
2022-12-19T07:12:27.950Z,1010.82
2022-12-19T07:13:27.919Z,1010.79
2022-12-19T07:14:27.926Z,1010.72
2022-12-19T07:15:27.904Z,1010.71
2022-12-19T07:16:27.991Z,1010.74
2022-12-19T07:17:27.893Z,1010.69
2022-12-19T07:18:27.863Z,1010.69
2022-12-19T07:19:27.857Z,1010.67
2022-12-19T07:20:27.836Z,1010.63
2022-12-19T07:21:27.837Z,1010.68
2022-12-19T07:22:27.800Z,1010.74
2022-12-19T07:23:27.814Z,1010.71
2022-12-19T07:24:27.814Z,1010.65
2022-12-19T07:25:27.774Z,1010.60
2022-12-19T07:26:27.757Z,1010.56
2022-12-19T07:27:35.228Z,1010.59
2022-12-19T07:28:28.732Z,1010.57
2022-12-19T07:29:27.723Z,1010.58
2022-12-19T07:30:27.720Z,1010.61
2022-12-19T07:31:28.417Z,1010.59
2022-12-19T07:32:27.735Z,1010.51
2022-12-19T07:33:27.716Z,1010.54
2022-12-19T07:34:27.649Z,1010.49
2022-12-19T07:35:27.639Z,1010.50
2022-12-19T07:36:27.640Z,1010.51
2022-12-19T07:37:27.637Z,1010.51
2022-12-19T07:38:27.634Z,1010.51
2022-12-19T07:39:27.585Z,1010.59
2022-12-19T07:40:27.584Z,1010.60
2022-12-19T07:41:27.554Z,1010.60
2022-12-19T07:42:32.210Z,1010.65
2022-12-19T07:43:28.532Z,1010.68
2022-12-19T07:44:27.525Z,1010.69
2022-12-19T07:45:27.532Z,1010.73
2022-12-19T07:46:27.495Z,1010.65
2022-12-19T07:47:27.492Z,1010.74
2022-12-19T07:48:27.475Z,1010.76
2022-12-19T07:49:27.483Z,1010.75
2022-12-19T07:50:27.435Z,1010.81
2022-12-19T07:51:27.440Z,1010.81
2022-12-19T07:52:27.443Z,1010.84
2022-12-19T07:53:27.415Z,1010.78
2022-12-19T07:54:27.451Z,1010.82
2022-12-19T07:55:27.413Z,1010.74
2022-12-19T07:56:27.374Z,1010.75
2022-12-19T07:57:27.347Z,1010.74
2022-12-19T07:58:27.322Z,1010.73
2022-12-19T07:59:31.219Z,1010.68
2022-12-19T08:00:28.395Z,1010.73
2022-12-19T08:01:28.265Z,1010.74
2022-12-19T08:02:27.406Z,1010.71
2022-12-19T08:03:27.284Z,1010.72
2022-12-19T08:04:27.272Z,1010.72
2022-12-19T08:05:27.288Z,1010.74
2022-12-19T08:06:27.234Z,1010.71
2022-12-19T08:07:27.245Z,1010.71
2022-12-19T08:08:27.201Z,1010.74
2022-12-19T08:09:27.199Z,1010.75
2022-12-19T08:10:27.181Z,1010.72
2022-12-19T08:11:27.185Z,1010.74
2022-12-19T08:12:27.155Z,1010.71
2022-12-19T08:13:30.035Z,1010.81
2022-12-19T08:14:28.190Z,1010.82
2022-12-19T08:15:27.147Z,1010.82
2022-12-19T08:16:27.133Z,1010.80
2022-12-19T08:17:27.389Z,1010.78
2022-12-19T08:18:27.084Z,1010.82
2022-12-19T08:19:27.790Z,1010.76
2022-12-19T08:20:27.150Z,1010.75
2022-12-19T08:21:27.046Z,1010.77
2022-12-19T08:22:27.042Z,1010.73
2022-12-19T08:23:27.064Z,1010.75
2022-12-19T08:24:27.019Z,1010.72
2022-12-19T08:25:26.979Z,1010.72
2022-12-19T08:26:27.757Z,1010.71
2022-12-19T08:27:26.962Z,1010.71
2022-12-19T08:28:26.954Z,1010.70
2022-12-19T08:29:26.939Z,1010.67
2022-12-19T08:30:26.960Z,1010.73
2022-12-19T08:31:26.949Z,1010.71
2022-12-19T08:32:26.899Z,1010.78
2022-12-19T08:33:26.953Z,1010.68
2022-12-19T08:34:26.894Z,1010.73
2022-12-19T08:35:26.980Z,1010.72
2022-12-19T08:36:26.856Z,1010.69
2022-12-19T08:37:26.846Z,1010.66
2022-12-19T08:38:26.839Z,1010.66
2022-12-19T08:39:27.091Z,1010.63
2022-12-19T08:40:26.904Z,1010.62
2022-12-19T08:41:26.782Z,1010.65
2022-12-19T08:42:26.767Z,1010.70
2022-12-19T08:43:26.862Z,1010.71
2022-12-19T08:44:26.847Z,1010.67
2022-12-19T08:45:26.742Z,1010.69
2022-12-19T08:46:26.841Z,1010.69
2022-12-19T08:47:26.766Z,1010.65
2022-12-19T08:48:26.688Z,1010.70
2022-12-19T08:49:26.681Z,1010.68
2022-12-19T08:50:26.686Z,1010.65
2022-12-19T08:51:26.701Z,1010.64
2022-12-19T08:52:26.704Z,1010.64
2022-12-19T08:53:26.922Z,1010.68
2022-12-19T08:54:26.638Z,1010.66
2022-12-19T08:55:27.695Z,1010.67
2022-12-19T08:56:26.591Z,1010.66
2022-12-19T08:57:26.560Z,1010.60
2022-12-19T08:58:26.631Z,1010.62
2022-12-19T08:59:31.036Z,1010.59
2022-12-19T09:00:27.544Z,1010.61
2022-12-19T09:01:26.579Z,1010.55
2022-12-19T09:02:26.654Z,1010.54
2022-12-19T09:03:27.102Z,1010.53
2022-12-19T09:05:02.056Z,1010.53
2022-12-19T09:06:00.335Z,1010.53
2022-12-19T09:06:27.490Z,1010.55
2022-12-19T09:07:26.465Z,1010.48
2022-12-19T09:08:26.422Z,1010.53
2022-12-19T09:09:26.428Z,1010.50
2022-12-19T09:10:26.701Z,1010.46
2022-12-19T09:11:26.400Z,1010.46
2022-12-19T09:12:26.383Z,1010.45
2022-12-19T09:13:26.391Z,1010.38
2022-12-19T09:14:26.375Z,1010.39
2022-12-19T09:15:26.336Z,1010.39
2022-12-19T09:16:26.389Z,1010.35
2022-12-19T09:17:26.352Z,1010.27
2022-12-19T09:18:26.308Z,1010.26
2022-12-19T09:19:26.315Z,1010.23
2022-12-19T09:20:26.347Z,1010.27
2022-12-19T09:21:26.255Z,1010.27
2022-12-19T09:22:29.616Z,1010.24
2022-12-19T09:23:26.227Z,1010.24
2022-12-19T09:24:26.284Z,1010.18
2022-12-19T09:25:26.204Z,1010.19
2022-12-19T09:26:26.229Z,1010.23
2022-12-19T09:27:26.184Z,1010.19
2022-12-19T09:28:27.700Z,1010.19
2022-12-19T09:29:27.841Z,1010.19
2022-12-19T09:30:26.157Z,1010.13
2022-12-19T09:31:26.198Z,1010.17
2022-12-19T09:32:26.122Z,1010.16
2022-12-19T09:33:26.134Z,1010.17
2022-12-19T09:34:37.667Z,1010.18
2022-12-19T09:35:30.453Z,1010.15
2022-12-19T09:36:26.061Z,1010.13
2022-12-19T09:37:26.140Z,1010.19
2022-12-19T09:38:26.047Z,1010.23
2022-12-19T09:39:26.091Z,1010.21
2022-12-19T09:40:26.013Z,1010.18
2022-12-19T09:41:26.002Z,1010.13
2022-12-19T09:42:25.992Z,1010.16
2022-12-19T09:43:25.970Z,1010.19
2022-12-19T09:44:25.961Z,1010.14
2022-12-19T09:45:31.549Z,1010.17
2022-12-19T09:46:26.977Z,1010.15
2022-12-19T09:47:25.986Z,1010.16
2022-12-19T09:48:25.914Z,1010.19
2022-12-19T09:49:25.914Z,1010.12
2022-12-19T09:50:25.888Z,1010.19
2022-12-19T09:51:26.148Z,1010.14
2022-12-19T09:52:25.896Z,1010.13
2022-12-19T09:53:25.841Z,1010.11
2022-12-19T09:54:25.832Z,1010.14
2022-12-19T09:55:25.947Z,1010.12
2022-12-19T09:56:25.824Z,1010.09
2022-12-19T09:57:25.790Z,1010.19
2022-12-19T09:58:25.823Z,1010.15
2022-12-19T09:59:26.159Z,1010.14
2022-12-19T10:00:25.754Z,1010.13
2022-12-19T10:01:25.838Z,1010.14
2022-12-19T10:02:25.969Z,1010.19
2022-12-19T10:03:25.791Z,1010.06
2022-12-19T10:04:25.720Z,1010.11
2022-12-19T10:06:10.649Z,1010.15
2022-12-19T10:07:15.965Z,1010.14
2022-12-19T10:08:01.446Z,1010.07
2022-12-19T10:08:26.649Z,1010.07
2022-12-19T10:11:30.274Z,1010.07
2022-12-19T10:12:42.260Z,1009.99
2022-12-19T10:12:43.159Z,1010.01
2022-12-19T10:12:46.089Z,1010.11
2022-12-19T10:13:26.623Z,1009.94
2022-12-19T10:14:25.637Z,1010.00
2022-12-19T10:15:25.592Z,1009.90
2022-12-19T10:16:25.610Z,1009.89
2022-12-19T10:17:25.724Z,1009.89
2022-12-19T10:18:25.512Z,1009.88
2022-12-19T10:19:25.528Z,1009.85
2022-12-19T10:20:25.503Z,1009.91
2022-12-19T10:21:50.908Z,1009.89
2022-12-19T10:22:26.484Z,1009.87
2022-12-19T10:23:25.442Z,1009.86
2022-12-19T10:24:28.759Z,1009.81
2022-12-19T10:25:26.437Z,1009.85
2022-12-19T10:26:30.168Z,1009.81
2022-12-19T10:27:26.403Z,1009.80
2022-12-19T10:28:25.419Z,1009.80
2022-12-19T10:29:25.398Z,1009.81
2022-12-19T10:30:25.378Z,1009.82
2022-12-19T10:31:25.489Z,1009.77
2022-12-19T10:32:25.376Z,1009.84
2022-12-19T10:33:25.452Z,1009.84
2022-12-19T10:34:25.345Z,1009.82
2022-12-19T10:35:25.298Z,1009.78
2022-12-19T10:36:48.767Z,1009.76
2022-12-19T10:37:35.103Z,1009.77
2022-12-19T10:38:26.263Z,1009.74
2022-12-19T10:39:25.257Z,1009.72
2022-12-19T10:40:28.272Z,1009.73
2022-12-19T10:41:25.249Z,1009.74
2022-12-19T10:42:25.229Z,1009.77
2022-12-19T10:43:32.901Z,1009.75
2022-12-19T10:44:26.236Z,1009.65
2022-12-19T10:45:25.190Z,1009.68
2022-12-19T10:46:25.202Z,1009.66
2022-12-19T10:47:25.137Z,1009.64
2022-12-19T10:48:25.316Z,1009.69
2022-12-19T10:49:26.159Z,1009.67
2022-12-19T10:50:25.110Z,1009.62
2022-12-19T10:51:25.078Z,1009.60
2022-12-19T10:52:25.076Z,1009.64
2022-12-19T10:53:25.073Z,1009.63
2022-12-19T10:54:33.016Z,1009.65
2022-12-19T10:55:26.082Z,1009.71
2022-12-19T10:56:25.454Z,1009.65
2022-12-19T10:57:24.996Z,1009.65
2022-12-19T10:58:25.003Z,1009.65
2022-12-19T10:59:25.026Z,1009.62
2022-12-19T11:00:25.029Z,1009.63
2022-12-19T11:01:25.149Z,1009.71
2022-12-19T11:02:25.115Z,1009.69
2022-12-19T11:03:25.166Z,1009.60
2022-12-19T11:04:25.011Z,1009.58
2022-12-19T11:05:24.968Z,1009.53
2022-12-19T11:06:24.900Z,1009.52
2022-12-19T11:07:24.997Z,1009.48
2022-12-19T11:08:24.882Z,1009.42
2022-12-19T11:09:24.861Z,1009.39
2022-12-19T11:11:27.683Z,1009.35
2022-12-19T11:12:48.390Z,1009.34
2022-12-19T11:13:32.224Z,1009.33
2022-12-19T11:17:27.031Z,1009.31
2022-12-19T11:19:23.898Z,1009.32
2022-12-19T11:20:53.063Z,1009.35
2022-12-19T11:23:08.313Z,1009.32
2022-12-19T11:27:04.320Z,1009.32
2022-12-19T11:27:22.247Z,1009.29
2022-12-19T11:28:30.487Z,1009.29
2022-12-19T11:29:18.860Z,1009.31
2022-12-19T11:29:30.903Z,1009.28
2022-12-19T11:29:32.362Z,1009.25
2022-12-19T11:30:09.085Z,1009.23
2022-12-19T11:30:36.057Z,1009.15
2022-12-19T11:30:36.760Z,1009.14
2022-12-19T11:30:45.316Z,1009.19
2022-12-19T11:30:45.317Z,1009.18
2022-12-19T11:30:48.854Z,1009.23
2022-12-19T11:31:54.664Z,1009.12
2022-12-19T11:32:32.058Z,1009.10
2022-12-19T11:32:40.505Z,1009.08
2022-12-19T11:33:25.623Z,1008.99
2022-12-19T11:34:24.798Z,1008.97
2022-12-19T11:35:25.238Z,1008.93
2022-12-19T11:36:25.479Z,1008.91
2022-12-19T11:37:24.492Z,1008.83
2022-12-19T11:38:24.458Z,1008.88
2022-12-19T11:39:24.462Z,1008.84
2022-12-19T11:40:24.437Z,1008.87
2022-12-19T11:41:24.452Z,1008.85
2022-12-19T11:42:24.474Z,1008.83
2022-12-19T11:44:25.397Z,1008.81
2022-12-19T11:45:24.382Z,1008.75
2022-12-19T11:46:24.360Z,1008.75
2022-12-19T11:47:24.348Z,1008.79
2022-12-19T11:48:24.335Z,1008.80
2022-12-19T11:49:24.346Z,1008.80
2022-12-19T11:50:24.289Z,1008.81
2022-12-19T11:51:24.309Z,1008.80
2022-12-19T11:53:02.313Z,1008.77
2022-12-19T11:53:25.275Z,1008.77
2022-12-19T11:54:24.283Z,1008.73
2022-12-19T11:55:24.273Z,1008.70
2022-12-19T11:56:24.257Z,1008.69
2022-12-19T11:57:24.215Z,1008.68
2022-12-19T11:58:24.204Z,1008.65
2022-12-19T11:59:24.194Z,1008.64
2022-12-19T12:00:24.196Z,1008.59
2022-12-19T12:01:24.283Z,1008.64
2022-12-19T12:02:24.161Z,1008.61
2022-12-19T12:03:24.187Z,1008.56
2022-12-19T12:04:24.163Z,1008.66
2022-12-19T12:05:24.137Z,1008.59
2022-12-19T12:06:29.502Z,1008.55
2022-12-19T12:08:25.475Z,1008.65